sensor_id;sensor_type;location;lat;lon;timestamp;temperature;humidity
5192;DHT22;2615;44.524;11.284;2023-05-10T00:01:41;16.80;70.50
5192;DHT22;2615;44.524;11.284;2023-05-10T00:04:09;16.80;70.60
5192;DHT22;2615;44.524;11.284;2023-05-10T00:06:37;16.80;70.70
5192;DHT22;2615;44.524;11.284;2023-05-10T00:09:07;16.90;70.80
5192;DHT22;2615;44.524;11.284;2023-05-10T00:11:35;16.90;70.90
5192;DHT22;2615;44.524;11.284;2023-05-10T00:14:03;16.90;70.90
5192;DHT22;2615;44.524;11.284;2023-05-10T00:16:31;16.90;71.00
5192;DHT22;2615;44.524;11.284;2023-05-10T00:18:59;16.90;71.10
5192;DHT22;2615;44.524;11.284;2023-05-10T00:21:29;16.90;71.20
5192;DHT22;2615;44.524;11.284;2023-05-10T00:23:57;16.90;71.20
5192;DHT22;2615;44.524;11.284;2023-05-10T00:26:26;16.90;71.30
5192;DHT22;2615;44.524;11.284;2023-05-10T00:28:54;16.90;71.50
5192;DHT22;2615;44.524;11.284;2023-05-10T00:31:23;16.90;71.60
5192;DHT22;2615;44.524;11.284;2023-05-10T00:33:51;16.90;72.30
5192;DHT22;2615;44.524;11.284;2023-05-10T00:36:19;16.90;71.80
5192;DHT22;2615;44.524;11.284;2023-05-10T00:38:47;16.90;71.90
5192;DHT22;2615;44.524;11.284;2023-05-10T00:41:16;16.80;71.80
5192;DHT22;2615;44.524;11.284;2023-05-10T00:43:45;16.90;72.10
5192;DHT22;2615;44.524;11.284;2023-05-10T00:46:14;16.80;72.10
5192;DHT22;2615;44.524;11.284;2023-05-10T00:48:43;16.80;72.10
5192;DHT22;2615;44.524;11.284;2023-05-10T00:51:13;16.80;72.30
5192;DHT22;2615;44.524;11.284;2023-05-10T00:53:41;16.80;73.10
5192;DHT22;2615;44.524;11.284;2023-05-10T00:56:09;16.80;72.50
5192;DHT22;2615;44.524;11.284;2023-05-10T00:58:37;16.80;72.60
5192;DHT22;2615;44.524;11.284;2023-05-10T01:01:07;16.80;72.80
5192;DHT22;2615;44.524;11.284;2023-05-10T01:03:36;16.80;72.90
5192;DHT22;2615;44.524;11.284;2023-05-10T01:06:05;16.80;73.00
5192;DHT22;2615;44.524;11.284;2023-05-10T01:08:34;16.80;73.10
5192;DHT22;2615;44.524;11.284;2023-05-10T01:11:02;16.80;73.20
5192;DHT22;2615;44.524;11.284;2023-05-10T01:13:32;16.80;73.30
5192;DHT22;2615;44.524;11.284;2023-05-10T01:16:01;16.80;73.40
5192;DHT22;2615;44.524;11.284;2023-05-10T01:18:33;16.80;73.50
5192;DHT22;2615;44.524;11.284;2023-05-10T01:21:17;16.70;73.60
5192;DHT22;2615;44.524;11.284;2023-05-10T01:24:09;16.70;73.80
5192;DHT22;2615;44.524;11.284;2023-05-10T01:27:10;16.70;73.80
5192;DHT22;2615;44.524;11.284;2023-05-10T01:30:14;16.70;73.90
5192;DHT22;2615;44.524;11.284;2023-05-10T01:32:52;16.70;73.90
5192;DHT22;2615;44.524;11.284;2023-05-10T01:35:26;16.70;73.90
5192;DHT22;2615;44.524;11.284;2023-05-10T01:38:04;16.70;74.00
5192;DHT22;2615;44.524;11.284;2023-05-10T01:40:39;16.70;74.10
5192;DHT22;2615;44.524;11.284;2023-05-10T01:43:14;16.70;74.20
5192;DHT22;2615;44.524;11.284;2023-05-10T01:45:50;16.80;74.20
5192;DHT22;2615;44.524;11.284;2023-05-10T01:48:20;16.70;74.20
5192;DHT22;2615;44.524;11.284;2023-05-10T01:50:50;16.70;74.40
5192;DHT22;2615;44.524;11.284;2023-05-10T01:53:20;16.80;74.50
5192;DHT22;2615;44.524;11.284;2023-05-10T01:55:51;16.70;74.60
5192;DHT22;2615;44.524;11.284;2023-05-10T01:58:25;16.80;74.70
5192;DHT22;2615;44.524;11.284;2023-05-10T02:00:55;16.70;74.70
5192;DHT22;2615;44.524;11.284;2023-05-10T02:03:28;16.70;74.70
5192;DHT22;2615;44.524;11.284;2023-05-10T02:05:57;16.70;74.90
5192;DHT22;2615;44.524;11.284;2023-05-10T02:08:26;16.70;74.90
5192;DHT22;2615;44.524;11.284;2023-05-10T02:10:56;16.70;75.00
5192;DHT22;2615;44.524;11.284;2023-05-10T02:13:27;16.70;75.00
5192;DHT22;2615;44.524;11.284;2023-05-10T02:15:57;16.70;75.10
5192;DHT22;2615;44.524;11.284;2023-05-10T02:18:28;16.70;75.10
5192;DHT22;2615;44.524;11.284;2023-05-10T02:20:58;16.70;75.20
5192;DHT22;2615;44.524;11.284;2023-05-10T02:23:27;16.60;75.10
5192;DHT22;2615;44.524;11.284;2023-05-10T02:25:57;16.60;75.10
5192;DHT22;2615;44.524;11.284;2023-05-10T02:28:27;16.60;75.20
5192;DHT22;2615;44.524;11.284;2023-05-10T02:30:56;16.50;75.20
5192;DHT22;2615;44.524;11.284;2023-05-10T02:33:25;16.60;75.40
5192;DHT22;2615;44.524;11.284;2023-05-10T02:35:56;16.60;75.40
5192;DHT22;2615;44.524;11.284;2023-05-10T02:38:25;16.60;75.40
5192;DHT22;2615;44.524;11.284;2023-05-10T02:40:55;16.50;75.30
5192;DHT22;2615;44.524;11.284;2023-05-10T02:43:24;16.60;75.40
5192;DHT22;2615;44.524;11.284;2023-05-10T02:45:53;16.60;75.40
5192;DHT22;2615;44.524;11.284;2023-05-10T02:48:21;16.50;75.20
5192;DHT22;2615;44.524;11.284;2023-05-10T02:50:51;16.50;75.30
5192;DHT22;2615;44.524;11.284;2023-05-10T02:53:26;16.50;75.30
5192;DHT22;2615;44.524;11.284;2023-05-10T02:56:00;16.50;75.30
5192;DHT22;2615;44.524;11.284;2023-05-10T02:58:30;16.40;75.20
5192;DHT22;2615;44.524;11.284;2023-05-10T03:00:59;16.40;75.20
5192;DHT22;2615;44.524;11.284;2023-05-10T03:03:28;16.40;75.30
5192;DHT22;2615;44.524;11.284;2023-05-10T03:05:56;16.30;75.30
5192;DHT22;2615;44.524;11.284;2023-05-10T03:08:26;16.30;75.30
5192;DHT22;2615;44.524;11.284;2023-05-10T03:11:25;16.30;75.30
5192;DHT22;2615;44.524;11.284;2023-05-10T03:14:04;16.30;75.40
5192;DHT22;2615;44.524;11.284;2023-05-10T03:16:41;16.30;75.40
5192;DHT22;2615;44.524;11.284;2023-05-10T03:19:17;16.20;75.30
5192;DHT22;2615;44.524;11.284;2023-05-10T03:21:50;16.20;75.30
5192;DHT22;2615;44.524;11.284;2023-05-10T03:24:22;16.20;75.40
5192;DHT22;2615;44.524;11.284;2023-05-10T03:26:54;16.20;75.50
5192;DHT22;2615;44.524;11.284;2023-05-10T03:29:25;16.10;75.40
5192;DHT22;2615;44.524;11.284;2023-05-10T03:31:54;16.10;75.50
5192;DHT22;2615;44.524;11.284;2023-05-10T03:34:23;16.10;75.60
5192;DHT22;2615;44.524;11.284;2023-05-10T03:36:52;16.10;75.60
5192;DHT22;2615;44.524;11.284;2023-05-10T03:39:21;16.10;75.80
5192;DHT22;2615;44.524;11.284;2023-05-10T03:41:49;16.10;75.80
5192;DHT22;2615;44.524;11.284;2023-05-10T03:44:17;16.00;75.70
5192;DHT22;2615;44.524;11.284;2023-05-10T03:46:45;16.00;75.80
5192;DHT22;2615;44.524;11.284;2023-05-10T03:49:14;16.00;75.80
5192;DHT22;2615;44.524;11.284;2023-05-10T03:51:42;16.00;75.90
5192;DHT22;2615;44.524;11.284;2023-05-10T03:54:10;15.90;75.90
5192;DHT22;2615;44.524;11.284;2023-05-10T03:56:40;15.90;76.00
5192;DHT22;2615;44.524;11.284;2023-05-10T03:59:08;15.90;76.10
5192;DHT22;2615;44.524;11.284;2023-05-10T04:01:36;15.80;76.00
5192;DHT22;2615;44.524;11.284;2023-05-10T04:04:04;15.80;76.10
5192;DHT22;2615;44.524;11.284;2023-05-10T04:06:33;15.80;76.20
5192;DHT22;2615;44.524;11.284;2023-05-10T04:09:01;15.70;76.30
5192;DHT22;2615;44.524;11.284;2023-05-10T04:11:31;15.70;76.40
5192;DHT22;2615;44.524;11.284;2023-05-10T04:14:00;15.70;76.50
5192;DHT22;2615;44.524;11.284;2023-05-10T04:16:28;15.80;76.70
5192;DHT22;2615;44.524;11.284;2023-05-10T04:18:57;15.70;76.60
5192;DHT22;2615;44.524;11.284;2023-05-10T04:21:25;15.80;76.70
5192;DHT22;2615;44.524;11.284;2023-05-10T04:23:53;15.80;76.80
5192;DHT22;2615;44.524;11.284;2023-05-10T04:26:21;15.80;76.80
5192;DHT22;2615;44.524;11.284;2023-05-10T04:28:49;15.70;77.50
5192;DHT22;2615;44.524;11.284;2023-05-10T04:31:19;15.70;76.80
5192;DHT22;2615;44.524;11.284;2023-05-10T04:33:47;15.70;76.90
5192;DHT22;2615;44.524;11.284;2023-05-10T04:36:16;15.70;76.90
5192;DHT22;2615;44.524;11.284;2023-05-10T04:38:44;15.70;77.10
5192;DHT22;2615;44.524;11.284;2023-05-10T04:41:12;15.70;77.10
5192;DHT22;2615;44.524;11.284;2023-05-10T04:43:40;15.70;77.20
5192;DHT22;2615;44.524;11.284;2023-05-10T04:46:09;15.70;77.20
5192;DHT22;2615;44.524;11.284;2023-05-10T04:48:38;15.60;77.10
5192;DHT22;2615;44.524;11.284;2023-05-10T04:51:06;15.60;77.30
5192;DHT22;2615;44.524;11.284;2023-05-10T04:53:34;15.60;77.30
5192;DHT22;2615;44.524;11.284;2023-05-10T04:56:03;15.60;77.30
5192;DHT22;2615;44.524;11.284;2023-05-10T04:58:31;15.60;77.40
5192;DHT22;2615;44.524;11.284;2023-05-10T05:01:05;15.60;77.40
5192;DHT22;2615;44.524;11.284;2023-05-10T05:03:33;15.60;77.60
5192;DHT22;2615;44.524;11.284;2023-05-10T05:06:04;15.50;77.50
5192;DHT22;2615;44.524;11.284;2023-05-10T05:08:32;15.50;77.50
5192;DHT22;2615;44.524;11.284;2023-05-10T05:11:00;15.50;77.60
5192;DHT22;2615;44.524;11.284;2023-05-10T05:13:29;15.50;77.70
5192;DHT22;2615;44.524;11.284;2023-05-10T05:15:57;15.60;77.90
5192;DHT22;2615;44.524;11.284;2023-05-10T05:18:25;15.50;77.80
5192;DHT22;2615;44.524;11.284;2023-05-10T05:20:53;15.60;78.00
5192;DHT22;2615;44.524;11.284;2023-05-10T05:23:22;15.50;77.90
5192;DHT22;2615;44.524;11.284;2023-05-10T05:25:51;15.60;78.10
5192;DHT22;2615;44.524;11.284;2023-05-10T05:28:20;15.50;77.90
5192;DHT22;2615;44.524;11.284;2023-05-10T05:30:48;15.50;78.10
5192;DHT22;2615;44.524;11.284;2023-05-10T05:33:16;15.50;78.20
5192;DHT22;2615;44.524;11.284;2023-05-10T05:35:45;15.50;78.30
5192;DHT22;2615;44.524;11.284;2023-05-10T05:38:17;15.50;78.40
5192;DHT22;2615;44.524;11.284;2023-05-10T05:40:46;15.50;78.40
5192;DHT22;2615;44.524;11.284;2023-05-10T05:43:15;15.60;78.60
5192;DHT22;2615;44.524;11.284;2023-05-10T05:45:43;15.60;78.60
5192;DHT22;2615;44.524;11.284;2023-05-10T05:48:11;15.50;78.50
5192;DHT22;2615;44.524;11.284;2023-05-10T05:50:39;15.50;78.60
5192;DHT22;2615;44.524;11.284;2023-05-10T05:53:07;15.50;78.80
5192;DHT22;2615;44.524;11.284;2023-05-10T05:55:35;15.50;78.80
5192;DHT22;2615;44.524;11.284;2023-05-10T05:58:05;15.50;78.90
5192;DHT22;2615;44.524;11.284;2023-05-10T06:00:33;15.50;78.90
5192;DHT22;2615;44.524;11.284;2023-05-10T06:03:01;15.50;79.00
5192;DHT22;2615;44.524;11.284;2023-05-10T06:05:29;15.50;79.00
5192;DHT22;2615;44.524;11.284;2023-05-10T06:07:59;15.50;79.10
5192;DHT22;2615;44.524;11.284;2023-05-10T06:10:27;15.50;79.20
5192;DHT22;2615;44.524;11.284;2023-05-10T06:12:55;15.50;79.20
5192;DHT22;2615;44.524;11.284;2023-05-10T06:15:25;15.50;79.20
5192;DHT22;2615;44.524;11.284;2023-05-10T06:17:53;15.50;79.30
5192;DHT22;2615;44.524;11.284;2023-05-10T06:20:21;15.50;79.30
5192;DHT22;2615;44.524;11.284;2023-05-10T06:22:50;15.60;79.50
5192;DHT22;2615;44.524;11.284;2023-05-10T06:25:18;15.60;79.60
5192;DHT22;2615;44.524;11.284;2023-05-10T06:27:46;15.60;79.70
5192;DHT22;2615;44.524;11.284;2023-05-10T06:30:19;15.50;79.00
5192;DHT22;2615;44.524;11.284;2023-05-10T06:32:51;15.60;79.70
5192;DHT22;2615;44.524;11.284;2023-05-10T06:35:19;15.60;79.70
5192;DHT22;2615;44.524;11.284;2023-05-10T06:37:47;15.50;79.70
5192;DHT22;2615;44.524;11.284;2023-05-10T06:40:15;15.50;79.80
5192;DHT22;2615;44.524;11.284;2023-05-10T06:42:44;15.50;79.90
5192;DHT22;2615;44.524;11.284;2023-05-10T06:45:13;15.40;79.90
5192;DHT22;2615;44.524;11.284;2023-05-10T06:47:43;15.40;80.10
5192;DHT22;2615;44.524;11.284;2023-05-10T06:50:12;15.40;80.10
5192;DHT22;2615;44.524;11.284;2023-05-10T06:52:40;15.40;80.20
5192;DHT22;2615;44.524;11.284;2023-05-10T06:55:10;15.40;80.30
5192;DHT22;2615;44.524;11.284;2023-05-10T06:57:38;15.40;80.40
5192;DHT22;2615;44.524;11.284;2023-05-10T07:00:07;15.40;80.50
5192;DHT22;2615;44.524;11.284;2023-05-10T07:02:36;15.40;80.50
5192;DHT22;2615;44.524;11.284;2023-05-10T07:05:05;15.40;80.60
5192;DHT22;2615;44.524;11.284;2023-05-10T07:07:34;15.40;80.60
5192;DHT22;2615;44.524;11.284;2023-05-10T07:10:03;15.40;80.80
5192;DHT22;2615;44.524;11.284;2023-05-10T07:12:31;15.40;80.80
5192;DHT22;2615;44.524;11.284;2023-05-10T07:14:59;15.40;80.90
5192;DHT22;2615;44.524;11.284;2023-05-10T07:17:28;15.40;81.00
5192;DHT22;2615;44.524;11.284;2023-05-10T07:19:56;15.40;81.00
5192;DHT22;2615;44.524;11.284;2023-05-10T07:22:25;15.40;81.00
5192;DHT22;2615;44.524;11.284;2023-05-10T07:24:54;15.40;81.10
5192;DHT22;2615;44.524;11.284;2023-05-10T07:27:22;15.40;81.20
5192;DHT22;2615;44.524;11.284;2023-05-10T07:29:51;15.50;81.40
5192;DHT22;2615;44.524;11.284;2023-05-10T07:32:19;15.50;81.40
5192;DHT22;2615;44.524;11.284;2023-05-10T07:34:47;15.50;81.40
5192;DHT22;2615;44.524;11.284;2023-05-10T07:37:15;15.50;81.40
5192;DHT22;2615;44.524;11.284;2023-05-10T07:39:43;15.50;81.50
5192;DHT22;2615;44.524;11.284;2023-05-10T07:42:12;15.50;81.50
5192;DHT22;2615;44.524;11.284;2023-05-10T07:44:41;15.50;81.60
5192;DHT22;2615;44.524;11.284;2023-05-10T07:47:09;15.50;81.60
5192;DHT22;2615;44.524;11.284;2023-05-10T07:49:37;15.50;81.60
5192;DHT22;2615;44.524;11.284;2023-05-10T07:52:05;15.50;81.60
5192;DHT22;2615;44.524;11.284;2023-05-10T07:54:33;15.50;81.70
5192;DHT22;2615;44.524;11.284;2023-05-10T07:57:02;15.50;81.70
5192;DHT22;2615;44.524;11.284;2023-05-10T07:59:31;15.50;81.70
5192;DHT22;2615;44.524;11.284;2023-05-10T08:01:59;15.50;81.70
5192;DHT22;2615;44.524;11.284;2023-05-10T08:04:28;15.50;81.70
5192;DHT22;2615;44.524;11.284;2023-05-10T08:06:56;15.50;81.70
5192;DHT22;2615;44.524;11.284;2023-05-10T08:09:24;15.50;81.80
5192;DHT22;2615;44.524;11.284;2023-05-10T08:11:52;15.50;81.80
5192;DHT22;2615;44.524;11.284;2023-05-10T08:14:20;15.50;81.70
5192;DHT22;2615;44.524;11.284;2023-05-10T08:16:49;15.50;81.70
5192;DHT22;2615;44.524;11.284;2023-05-10T08:19:17;15.50;81.70
5192;DHT22;2615;44.524;11.284;2023-05-10T08:21:46;15.50;81.80
5192;DHT22;2615;44.524;11.284;2023-05-10T08:24:14;15.50;81.80
5192;DHT22;2615;44.524;11.284;2023-05-10T08:26:42;15.50;81.90
5192;DHT22;2615;44.524;11.284;2023-05-10T08:29:10;15.50;82.00
5192;DHT22;2615;44.524;11.284;2023-05-10T08:31:38;15.50;81.90
5192;DHT22;2615;44.524;11.284;2023-05-10T08:34:08;15.60;82.00
5192;DHT22;2615;44.524;11.284;2023-05-10T08:36:36;15.60;81.90
5192;DHT22;2615;44.524;11.284;2023-05-10T08:39:04;15.60;81.90
5192;DHT22;2615;44.524;11.284;2023-05-10T08:41:44;15.60;81.80
5192;DHT22;2615;44.524;11.284;2023-05-10T08:44:12;15.60;81.90
5192;DHT22;2615;44.524;11.284;2023-05-10T08:46:41;15.60;81.90
5192;DHT22;2615;44.524;11.284;2023-05-10T08:49:17;15.60;82.00
5192;DHT22;2615;44.524;11.284;2023-05-10T08:51:50;15.60;82.00
5192;DHT22;2615;44.524;11.284;2023-05-10T08:54:19;15.60;82.00
5192;DHT22;2615;44.524;11.284;2023-05-10T08:56:48;15.60;82.00
5192;DHT22;2615;44.524;11.284;2023-05-10T08:59:16;15.60;82.10
5192;DHT22;2615;44.524;11.284;2023-05-10T09:01:45;15.70;82.30
5192;DHT22;2615;44.524;11.284;2023-05-10T09:04:17;15.70;82.30
5192;DHT22;2615;44.524;11.284;2023-05-10T09:06:45;15.80;82.40
5192;DHT22;2615;44.524;11.284;2023-05-10T09:09:14;15.80;82.40
5192;DHT22;2615;44.524;11.284;2023-05-10T09:11:44;15.80;82.40
5192;DHT22;2615;44.524;11.284;2023-05-10T09:14:12;15.90;82.50
5192;DHT22;2615;44.524;11.284;2023-05-10T09:16:41;15.90;82.40
5192;DHT22;2615;44.524;11.284;2023-05-10T09:19:09;15.90;82.40
5192;DHT22;2615;44.524;11.284;2023-05-10T09:21:39;15.90;82.40
5192;DHT22;2615;44.524;11.284;2023-05-10T09:24:08;16.00;82.60
5192;DHT22;2615;44.524;11.284;2023-05-10T09:26:45;16.00;82.50
5192;DHT22;2615;44.524;11.284;2023-05-10T09:29:14;16.00;82.50
5192;DHT22;2615;44.524;11.284;2023-05-10T09:31:45;16.00;82.40
5192;DHT22;2615;44.524;11.284;2023-05-10T09:34:18;16.00;82.40
5192;DHT22;2615;44.524;11.284;2023-05-10T09:36:53;15.90;82.30
5192;DHT22;2615;44.524;11.284;2023-05-10T09:39:23;15.90;82.30
5192;DHT22;2615;44.524;11.284;2023-05-10T09:41:58;15.90;82.30
5192;DHT22;2615;44.524;11.284;2023-05-10T09:44:27;15.90;82.40
5192;DHT22;2615;44.524;11.284;2023-05-10T09:46:55;15.80;82.30
5192;DHT22;2615;44.524;11.284;2023-05-10T09:49:23;15.80;82.20
5192;DHT22;2615;44.524;11.284;2023-05-10T09:52:04;15.70;82.20
5192;DHT22;2615;44.524;11.284;2023-05-10T09:54:32;15.70;82.40
5192;DHT22;2615;44.524;11.284;2023-05-10T09:57:01;15.70;82.40
5192;DHT22;2615;44.524;11.284;2023-05-10T09:59:29;15.70;82.40
5192;DHT22;2615;44.524;11.284;2023-05-10T10:01:58;15.70;82.40
5192;DHT22;2615;44.524;11.284;2023-05-10T10:04:27;15.60;82.30
5192;DHT22;2615;44.524;11.284;2023-05-10T10:07:02;15.60;82.30
5192;DHT22;2615;44.524;11.284;2023-05-10T10:09:32;15.60;82.40
5192;DHT22;2615;44.524;11.284;2023-05-10T10:12:00;15.60;82.50
5192;DHT22;2615;44.524;11.284;2023-05-10T10:14:29;15.60;82.50
5192;DHT22;2615;44.524;11.284;2023-05-10T10:16:57;15.60;82.50
5192;DHT22;2615;44.524;11.284;2023-05-10T10:19:33;15.50;82.30
5192;DHT22;2615;44.524;11.284;2023-05-10T10:22:03;15.50;82.40
5192;DHT22;2615;44.524;11.284;2023-05-10T10:24:32;15.50;82.40
5192;DHT22;2615;44.524;11.284;2023-05-10T10:27:08;15.50;82.50
5192;DHT22;2615;44.524;11.284;2023-05-10T10:29:47;15.50;82.50
5192;DHT22;2615;44.524;11.284;2023-05-10T10:32:22;15.50;82.50
5192;DHT22;2615;44.524;11.284;2023-05-10T10:34:54;15.50;82.50
5192;DHT22;2615;44.524;11.284;2023-05-10T10:37:42;15.60;82.70
5192;DHT22;2615;44.524;11.284;2023-05-10T10:40:24;15.60;82.60
5192;DHT22;2615;44.524;11.284;2023-05-10T10:42:53;15.60;82.60
5192;DHT22;2615;44.524;11.284;2023-05-10T10:45:23;15.60;82.40
5192;DHT22;2615;44.524;11.284;2023-05-10T10:48:20;15.60;82.50
5192;DHT22;2615;44.524;11.284;2023-05-10T10:50:56;15.50;82.40
5192;DHT22;2615;44.524;11.284;2023-05-10T10:53:28;15.50;82.40
5192;DHT22;2615;44.524;11.284;2023-05-10T10:56:05;15.50;82.40
5192;DHT22;2615;44.524;11.284;2023-05-10T10:58:36;15.50;82.50
5192;DHT22;2615;44.524;11.284;2023-05-10T11:01:13;15.50;82.50
5192;DHT22;2615;44.524;11.284;2023-05-10T11:06:38;15.40;82.30
5192;DHT22;2615;44.524;11.284;2023-05-10T11:09:09;15.30;82.10
5192;DHT22;2615;44.524;11.284;2023-05-10T11:11:49;15.20;82.20
5192;DHT22;2615;44.524;11.284;2023-05-10T11:14:20;15.10;82.40
5192;DHT22;2615;44.524;11.284;2023-05-10T11:16:49;15.10;82.60
5192;DHT22;2615;44.524;11.284;2023-05-10T11:19:18;15.10;82.60
5192;DHT22;2615;44.524;11.284;2023-05-10T11:21:48;15.00;82.60
5192;DHT22;2615;44.524;11.284;2023-05-10T11:24:20;15.00;82.80
5192;DHT22;2615;44.524;11.284;2023-05-10T11:26:50;15.00;82.80
5192;DHT22;2615;44.524;11.284;2023-05-10T11:29:18;15.00;82.80
5192;DHT22;2615;44.524;11.284;2023-05-10T11:31:47;14.90;82.80
5192;DHT22;2615;44.524;11.284;2023-05-10T11:34:25;14.80;82.80
5192;DHT22;2615;44.524;11.284;2023-05-10T11:36:55;14.80;82.90
5192;DHT22;2615;44.524;11.284;2023-05-10T11:39:27;14.70;82.90
5192;DHT22;2615;44.524;11.284;2023-05-10T11:41:56;14.70;83.10
5192;DHT22;2615;44.524;11.284;2023-05-10T11:44:29;14.60;83.00
5192;DHT22;2615;44.524;11.284;2023-05-10T11:46:58;14.60;83.10
5192;DHT22;2615;44.524;11.284;2023-05-10T11:49:27;14.60;83.20
5192;DHT22;2615;44.524;11.284;2023-05-10T11:52:04;14.50;83.30
5192;DHT22;2615;44.524;11.284;2023-05-10T11:54:34;14.50;83.40
5192;DHT22;2615;44.524;11.284;2023-05-10T11:57:03;14.50;83.40
5192;DHT22;2615;44.524;11.284;2023-05-10T11:59:31;14.40;83.40
5192;DHT22;2615;44.524;11.284;2023-05-10T12:01:59;14.40;83.50
5192;DHT22;2615;44.524;11.284;2023-05-10T12:04:28;14.40;83.50
5192;DHT22;2615;44.524;11.284;2023-05-10T12:06:57;14.30;83.50
5192;DHT22;2615;44.524;11.284;2023-05-10T12:09:25;14.30;83.80
5192;DHT22;2615;44.524;11.284;2023-05-10T12:11:57;14.20;83.80
5192;DHT22;2615;44.524;11.284;2023-05-10T12:14:26;14.20;83.80
5192;DHT22;2615;44.524;11.284;2023-05-10T12:16:57;14.20;83.90
5192;DHT22;2615;44.524;11.284;2023-05-10T12:19:25;14.20;84.10
5192;DHT22;2615;44.524;11.284;2023-05-10T12:21:53;14.20;84.20
5192;DHT22;2615;44.524;11.284;2023-05-10T12:24:21;14.20;84.20
5192;DHT22;2615;44.524;11.284;2023-05-10T12:26:51;14.20;84.30
5192;DHT22;2615;44.524;11.284;2023-05-10T12:29:20;14.20;84.30
5192;DHT22;2615;44.524;11.284;2023-05-10T12:31:51;14.20;84.30
5192;DHT22;2615;44.524;11.284;2023-05-10T12:34:31;14.20;84.30
5192;DHT22;2615;44.524;11.284;2023-05-10T12:37:00;14.20;84.50
5192;DHT22;2615;44.524;11.284;2023-05-10T12:39:38;14.20;84.40
5192;DHT22;2615;44.524;11.284;2023-05-10T12:42:06;14.20;84.50
5192;DHT22;2615;44.524;11.284;2023-05-10T12:44:36;14.20;84.50
5192;DHT22;2615;44.524;11.284;2023-05-10T12:47:04;14.20;84.60
5192;DHT22;2615;44.524;11.284;2023-05-10T12:49:34;14.20;84.60
5192;DHT22;2615;44.524;11.284;2023-05-10T12:52:02;14.20;84.80
5192;DHT22;2615;44.524;11.284;2023-05-10T12:54:30;14.20;84.80
5192;DHT22;2615;44.524;11.284;2023-05-10T12:56:58;14.30;84.90
5192;DHT22;2615;44.524;11.284;2023-05-10T12:59:26;14.20;84.80
5192;DHT22;2615;44.524;11.284;2023-05-10T13:01:57;14.20;84.80
5192;DHT22;2615;44.524;11.284;2023-05-10T13:04:25;14.20;84.80
5192;DHT22;2615;44.524;11.284;2023-05-10T13:06:54;14.20;85.00
5192;DHT22;2615;44.524;11.284;2023-05-10T13:09:25;14.20;85.00
5192;DHT22;2615;44.524;11.284;2023-05-10T13:11:56;14.20;85.00
5192;DHT22;2615;44.524;11.284;2023-05-10T13:14:24;14.20;84.90
5192;DHT22;2615;44.524;11.284;2023-05-10T13:16:52;14.20;85.10
5192;DHT22;2615;44.524;11.284;2023-05-10T13:19:22;14.20;85.10
5192;DHT22;2615;44.524;11.284;2023-05-10T13:21:51;14.20;85.10
5192;DHT22;2615;44.524;11.284;2023-05-10T13:24:19;14.30;85.40
5192;DHT22;2615;44.524;11.284;2023-05-10T13:26:47;14.30;85.50
5192;DHT22;2615;44.524;11.284;2023-05-10T13:29:16;14.20;85.40
5192;DHT22;2615;44.524;11.284;2023-05-10T13:31:45;14.30;85.70
5192;DHT22;2615;44.524;11.284;2023-05-10T13:34:13;14.30;86.40
5192;DHT22;2615;44.524;11.284;2023-05-10T13:36:42;14.30;85.70
5192;DHT22;2615;44.524;11.284;2023-05-10T13:39:11;14.40;85.70
5192;DHT22;2615;44.524;11.284;2023-05-10T13:41:39;14.40;85.70
5192;DHT22;2615;44.524;11.284;2023-05-10T13:44:08;14.40;85.70
5192;DHT22;2615;44.524;11.284;2023-05-10T13:46:36;14.40;85.80
5192;DHT22;2615;44.524;11.284;2023-05-10T13:49:05;14.50;85.80
5192;DHT22;2615;44.524;11.284;2023-05-10T13:51:33;14.50;85.80
5192;DHT22;2615;44.524;11.284;2023-05-10T13:54:03;14.50;85.70
5192;DHT22;2615;44.524;11.284;2023-05-10T13:56:32;14.50;85.80
5192;DHT22;2615;44.524;11.284;2023-05-10T13:59:00;14.60;85.90
5192;DHT22;2615;44.524;11.284;2023-05-10T14:01:28;14.60;86.00
5192;DHT22;2615;44.524;11.284;2023-05-10T14:03:56;14.60;85.90
5192;DHT22;2615;44.524;11.284;2023-05-10T14:06:25;14.60;86.00
5192;DHT22;2615;44.524;11.284;2023-05-10T14:08:53;14.60;86.10
5192;DHT22;2615;44.524;11.284;2023-05-10T14:11:23;14.60;86.10
5192;DHT22;2615;44.524;11.284;2023-05-10T14:13:51;14.60;86.10
5192;DHT22;2615;44.524;11.284;2023-05-10T14:16:19;14.70;86.20
5192;DHT22;2615;44.524;11.284;2023-05-10T14:18:47;14.70;86.10
5192;DHT22;2615;44.524;11.284;2023-05-10T14:21:16;14.70;86.20
5192;DHT22;2615;44.524;11.284;2023-05-10T14:23:44;14.70;86.20
5192;DHT22;2615;44.524;11.284;2023-05-10T14:26:12;14.70;86.10
5192;DHT22;2615;44.524;11.284;2023-05-10T14:28:42;14.70;86.10
5192;DHT22;2615;44.524;11.284;2023-05-10T14:31:10;14.70;86.20
5192;DHT22;2615;44.524;11.284;2023-05-10T14:33:38;14.70;86.20
5192;DHT22;2615;44.524;11.284;2023-05-10T14:36:07;14.70;86.20
5192;DHT22;2615;44.524;11.284;2023-05-10T14:38:35;14.70;86.20
5192;DHT22;2615;44.524;11.284;2023-05-10T14:41:03;14.70;86.20
5192;DHT22;2615;44.524;11.284;2023-05-10T14:43:32;14.70;86.10
5192;DHT22;2615;44.524;11.284;2023-05-10T14:46:01;14.60;86.20
5192;DHT22;2615;44.524;11.284;2023-05-10T14:48:29;14.60;86.30
5192;DHT22;2615;44.524;11.284;2023-05-10T14:50:58;14.60;86.40
5192;DHT22;2615;44.524;11.284;2023-05-10T14:53:26;14.60;86.40
5192;DHT22;2615;44.524;11.284;2023-05-10T14:55:54;14.70;86.50
5192;DHT22;2615;44.524;11.284;2023-05-10T14:58:22;14.70;86.50
5192;DHT22;2615;44.524;11.284;2023-05-10T15:00:50;14.70;86.50
5192;DHT22;2615;44.524;11.284;2023-05-10T15:03:20;14.70;87.10
5192;DHT22;2615;44.524;11.284;2023-05-10T15:05:48;14.70;86.50
5192;DHT22;2615;44.524;11.284;2023-05-10T15:08:16;14.80;86.60
5192;DHT22;2615;44.524;11.284;2023-05-10T15:10:44;14.80;86.60
5192;DHT22;2615;44.524;11.284;2023-05-10T15:13:13;14.80;86.50
5192;DHT22;2615;44.524;11.284;2023-05-10T15:15:41;14.80;86.50
5192;DHT22;2615;44.524;11.284;2023-05-10T15:18:09;14.80;86.50
5192;DHT22;2615;44.524;11.284;2023-05-10T15:20:38;14.80;86.40
5192;DHT22;2615;44.524;11.284;2023-05-10T15:23:07;14.80;86.40
5192;DHT22;2615;44.524;11.284;2023-05-10T15:25:35;14.80;86.40
5192;DHT22;2615;44.524;11.284;2023-05-10T15:28:04;14.80;86.40
5192;DHT22;2615;44.524;11.284;2023-05-10T15:30:32;14.80;86.40
5192;DHT22;2615;44.524;11.284;2023-05-10T15:33:00;14.80;86.40
5192;DHT22;2615;44.524;11.284;2023-05-10T15:35:29;14.80;86.50
5192;DHT22;2615;44.524;11.284;2023-05-10T15:37:58;14.80;86.60
5192;DHT22;2615;44.524;11.284;2023-05-10T15:40:26;14.90;86.70
5192;DHT22;2615;44.524;11.284;2023-05-10T15:42:54;14.90;86.80
5192;DHT22;2615;44.524;11.284;2023-05-10T15:45:23;14.90;86.80
5192;DHT22;2615;44.524;11.284;2023-05-10T15:47:51;14.90;86.80
5192;DHT22;2615;44.524;11.284;2023-05-10T15:50:19;15.00;86.80
5192;DHT22;2615;44.524;11.284;2023-05-10T15:52:47;15.00;86.90
5192;DHT22;2615;44.524;11.284;2023-05-10T15:55:17;15.00;87.00
5192;DHT22;2615;44.524;11.284;2023-05-10T15:57:46;15.00;87.00
5192;DHT22;2615;44.524;11.284;2023-05-10T16:00:16;15.00;87.00
5192;DHT22;2615;44.524;11.284;2023-05-10T16:02:44;15.00;87.00
5192;DHT22;2615;44.524;11.284;2023-05-10T16:05:13;15.00;87.00